Campo Seco, California
Current Conditions -  °F | °C
As of 1:55 PM on Saturday 25 Oct 2014 (Local Time) from KO22 Reporting Station
Overcast Overcast  
Wind Chill: 55°   Ceiling: 400
Heat Index: 55°   Visibility: 3mi
Dew Point: 54°   Wind: 0mph
Humidity: 94%   Direction: NA
Pressure: 30.1"   Gusts: NA
Location:  38.22°N, 120.85°W
Report Text: KO22 252055Z AUTO 00000KT 3SM BKN004 OVC008 13/12 A3010 RMK AO1
Loading
Personal Weather Stations






























Interactive Weather Map
Tropical Storm Tracking
New forecast layout! Learn more

10-Day Weather Forecast

Advertisements
Track Severe Weather on mobile